Time;durP1;ratioP1;P1;durP2;ratioP2;P2;SDS_P1;SDS_P2;PMS_P1;PMS_P2;Temp;Humidity;BMP_temperature;BMP_pressure;BME280_temperature;BME280_humidity;BME280_pressure;Samples;Min_cycle;Max_cycle;Signal;HPM_P1;HPM_P2
2021/09/23 00:01:02;;;;;;;4.50;2.90;;;18.60;59.40;;;;;;4899550;29;20187;-79
2021/09/23 00:03:44;;;;;;;5.28;2.72;;;18.60;59.50;;;;;;4899150;29;20163;-80
2021/09/23 00:06:10;;;;;;;6.72;2.55;;;18.60;59.50;;;;;;4884545;29;20174;-79
2021/09/23 00:08:35;;;;;;;4.88;2.67;;;18.60;59.50;;;;;;4899430;29;20159;-80
2021/09/23 00:11:01;;;;;;;5.55;2.75;;;18.50;59.40;;;;;;4899023;29;20167;-80
2021/09/23 00:13:27;;;;;;;4.03;2.90;;;18.60;59.50;;;;;;4882535;29;20170;-79
2021/09/23 00:15:53;;;;;;;4.38;2.58;;;18.60;59.40;;;;;;4898210;29;20202;-79
2021/09/23 00:18:19;;;;;;;4.20;2.88;;;18.60;59.40;;;;;;4898855;29;20522;-79
2021/09/23 00:20:48;;;;;;;5.15;2.80;;;18.60;59.40;;;;;;4898968;29;20171;-79
2021/09/23 00:23:14;;;;;;;4.22;2.90;;;18.50;59.40;;;;;;4898802;29;20160;-79
2021/09/23 00:25:40;;;;;;;4.40;2.70;;;18.60;59.40;;;;;;4882392;29;20679;-79
2021/09/23 00:28:06;;;;;;;5.88;3.13;;;18.60;59.40;;;;;;4881962;29;20159;-79
2021/09/23 00:30:32;;;;;;;4.10;2.75;;;18.50;59.40;;;;;;4882129;29;20215;-79
2021/09/23 00:32:57;;;;;;;4.60;2.70;;;18.60;59.50;;;;;;4898551;29;20317;-79
2021/09/23 00:35:23;;;;;;;8.02;3.42;;;18.60;59.50;;;;;;4881737;29;20219;-79
2021/09/23 00:37:49;;;;;;;4.97;2.95;;;18.60;59.50;;;;;;4881963;29;20170;-80
2021/09/23 00:40:16;;;;;;;5.07;2.83;;;18.50;59.60;;;;;;4898837;29;20180;-79
2021/09/23 00:42:42;;;;;;;5.90;3.00;;;18.50;59.50;;;;;;4898721;29;20175;-79
2021/09/23 00:45:09;;;;;;;5.00;2.92;;;18.50;59.50;;;;;;4881776;29;20219;-79
2021/09/23 00:47:35;;;;;;;7.35;2.90;;;18.50;59.50;;;;;;4898796;29;20160;-79
2021/09/23 00:50:00;;;;;;;6.25;3.08;;;18.60;59.50;;;;;;4898456;29;20370;-80
2021/09/23 00:52:27;;;;;;;4.00;2.97;;;18.50;59.50;;;;;;4898410;29;20511;-79
2021/09/23 00:54:53;;;;;;;4.03;2.70;;;18.50;59.50;;;;;;4898263;29;20192;-79
2021/09/23 00:57:20;;;;;;;5.18;3.08;;;18.60;59.50;;;;;;4898329;29;20634;-79
2021/09/23 00:59:46;;;;;;;7.35;3.17;;;18.60;59.50;;;;;;4898304;29;20167;-79
2021/09/23 01:02:11;;;;;;;4.82;2.65;;;18.50;59.40;;;;;;4898338;29;20160;-79
2021/09/23 01:04:42;;;;;;;5.90;2.90;;;18.50;59.50;;;;;;4898519;29;20175;-79
2021/09/23 01:07:11;;;;;;;4.35;3.13;;;18.50;59.50;;;;;;4882471;29;20243;-79
2021/09/23 01:09:38;;;;;;;3.42;2.80;;;18.50;59.50;;;;;;4881596;29;20242;-80
2021/09/23 01:12:04;;;;;;;4.63;3.00;;;18.50;59.50;;;;;;4881511;29;20166;-80
2021/09/23 01:14:29;;;;;;;3.65;2.47;;;18.50;59.50;;;;;;4881496;29;20188;-80
2021/09/23 01:16:55;;;;;;;4.22;3.08;;;18.50;59.50;;;;;;4898177;29;20174;-80
2021/09/23 01:19:21;;;;;;;4.82;2.88;;;18.50;59.60;;;;;;4881817;29;20627;-79
2021/09/23 01:21:46;;;;;;;3.70;2.75;;;18.50;59.60;;;;;;4898139;29;20160;-80
2021/09/23 01:24:12;;;;;;;4.07;2.95;;;18.50;59.60;;;;;;4898494;29;20662;-80
2021/09/23 01:26:38;;;;;;;5.88;2.97;;;18.50;59.50;;;;;;4899716;29;20170;-79
2021/09/23 01:29:03;;;;;;;5.18;2.92;;;18.50;59.50;;;;;;4902253;29;20635;-80
2021/09/23 01:31:29;;;;;;;5.53;3.10;;;18.60;59.60;;;;;;4902054;29;20155;-79
2021/09/23 01:33:55;;;;;;;4.05;2.72;;;18.50;59.50;;;;;;4901857;29;20302;-79
2021/09/23 01:36:20;;;;;;;5.80;3.20;;;18.50;59.50;;;;;;4885103;29;20281;-79
2021/09/23 01:38:46;;;;;;;5.35;3.08;;;18.50;59.60;;;;;;4885169;29;20217;-79
2021/09/23 01:41:12;;;;;;;4.43;2.65;;;18.50;59.60;;;;;;4901718;29;20642;-79
2021/09/23 01:43:38;;;;;;;4.32;2.55;;;18.50;59.60;;;;;;4901761;29;20159;-79
2021/09/23 01:46:03;;;;;;;4.25;3.05;;;18.50;59.60;;;;;;4885071;29;20531;-79
2021/09/23 01:48:29;;;;;;;5.28;2.78;;;18.50;59.60;;;;;;4901609;29;20611;-79
2021/09/23 01:50:55;;;;;;;4.25;2.63;;;18.50;59.60;;;;;;4885268;29;20235;-79
2021/09/23 01:53:20;;;;;;;4.35;2.70;;;18.50;59.60;;;;;;4901615;29;20190;-79
2021/09/23 01:55:46;;;;;;;4.60;2.90;;;18.50;60.40;;;;;;4901387;29;20565;-79
2021/09/23 01:58:11;;;;;;;6.82;2.90;;;18.50;59.70;;;;;;4901609;29;20184;-80
2021/09/23 02:00:37;;;;;;;5.22;3.05;;;18.50;60.40;;;;;;4901771;29;20666;-80
2021/09/23 02:03:03;;;;;;;4.85;3.05;;;18.50;59.70;;;;;;4901511;29;20178;-80
2021/09/23 02:05:29;;;;;;;4.20;3.17;;;18.50;59.70;;;;;;4901326;29;20186;-79
2021/09/23 02:07:54;;;;;;;3.70;2.88;;;18.50;59.70;;;;;;4884643;29;20192;-79
2021/09/23 02:10:20;;;;;;;5.82;2.85;;;18.50;59.70;;;;;;4884541;29;20164;-80
2021/09/23 02:12:46;;;;;;;4.78;2.90;;;18.40;59.60;;;;;;4869281;29;20171;-80
2021/09/23 02:15:11;;;;;;;4.85;2.95;;;18.50;59.70;;;;;;4901203;29;20210;-80
2021/09/23 02:17:37;;;;;;;3.90;3.00;;;18.50;59.60;;;;;;4901345;29;20524;-79
2021/09/23 02:20:03;;;;;;;3.95;2.70;;;18.50;60.40;;;;;;4901158;29;20236;-79
2021/09/23 02:22:28;;;;;;;5.72;3.13;;;18.50;59.70;;;;;;4901222;29;20156;-79
2021/09/23 02:24:54;;;;;;;4.47;2.95;;;18.50;59.70;;;;;;4900949;29;20565;-79
2021/09/23 02:27:21;;;;;;;4.05;2.70;;;18.40;59.70;;;;;;4884270;29;20594;-80
2021/09/23 02:29:46;;;;;;;5.30;2.88;;;18.40;59.60;;;;;;4884511;29;20164;-79
2021/09/23 02:32:12;;;;;;;6.05;3.08;;;18.50;59.60;;;;;;4884047;29;20227;-80
2021/09/23 02:34:38;;;;;;;5.25;3.00;;;18.50;59.70;;;;;;4901019;29;20199;-80
2021/09/23 02:37:03;;;;;;;6.25;3.00;;;18.50;59.70;;;;;;4901186;29;20159;-79
2021/09/23 02:39:29;;;;;;;5.70;3.05;;;18.50;59.70;;;;;;4883682;29;20160;-79
2021/09/23 02:41:55;;;;;;;5.43;3.03;;;18.50;59.70;;;;;;4884069;29;20638;-79
2021/09/23 02:44:20;;;;;;;3.58;2.70;;;18.50;59.60;;;;;;4900623;29;20238;-79
2021/09/23 02:46:46;;;;;;;4.93;2.85;;;18.50;59.60;;;;;;4900689;29;20582;-78
2021/09/23 02:49:12;;;;;;;4.15;2.90;;;18.40;59.60;;;;;;4900643;29;20162;-80
2021/09/23 02:51:37;;;;;;;4.55;2.83;;;18.50;59.60;;;;;;4900841;29;20163;-80
2021/09/23 02:54:03;;;;;;;4.50;3.10;;;18.50;59.60;;;;;;4900562;29;20166;-80
2021/09/23 02:56:29;;;;;;;4.15;2.75;;;18.50;59.60;;;;;;4900437;29;20678;-80
2021/09/23 02:58:55;;;;;;;4.97;3.00;;;18.50;59.60;;;;;;4900397;29;20187;-79
2021/09/23 03:01:21;;;;;;;3.70;2.88;;;18.50;59.70;;;;;;4900463;29;20182;-80
2021/09/23 03:03:46;;;;;;;4.78;2.97;;;18.50;59.70;;;;;;4900338;29;20193;-79
2021/09/23 03:06:12;;;;;;;4.43;2.72;;;18.50;59.70;;;;;;4883906;29;20220;-80
2021/09/23 03:08:38;;;;;;;4.13;2.90;;;18.40;59.80;;;;;;4883514;29;20577;-79
2021/09/23 03:11:03;;;;;;;4.85;2.90;;;18.50;60.00;;;;;;4900242;29;20163;-79
2021/09/23 03:13:29;;;;;;;3.78;2.70;;;18.40;60.90;;;;;;4900205;29;20520;-80
2021/09/23 03:15:55;;;;;;;3.97;2.95;;;18.40;60.10;;;;;;4900035;29;20196;-80
2021/09/23 03:18:21;;;;;;;5.47;2.90;;;18.40;60.10;;;;;;4883455;29;20226;-80
2021/09/23 03:20:47;;;;;;;5.07;2.97;;;18.40;60.20;;;;;;4900189;29;20155;-79
2021/09/23 03:23:13;;;;;;;2.78;2.33;;;18.40;60.20;;;;;;4900249;29;20171;-80
2021/09/23 03:25:39;;;;;;;4.00;2.72;;;18.40;60.30;;;;;;4867819;29;20168;-79
2021/09/23 03:28:05;;;;;;;4.22;2.53;;;18.40;60.30;;;;;;4883385;29;20187;-80
2021/09/23 03:30:32;;;;;;;3.55;2.92;;;18.40;60.30;;;;;;4899931;29;20677;-80
2021/09/23 03:32:58;;;;;;;5.60;2.92;;;18.40;60.30;;;;;;4883212;29;20227;-79
2021/09/23 03:35:23;;;;;;;4.15;2.70;;;18.40;60.40;;;;;;4899627;29;20202;-79
2021/09/23 03:37:49;;;;;;;4.15;2.85;;;18.40;60.50;;;;;;4883022;29;20627;-80
2021/09/23 03:40:15;;;;;;;3.63;2.65;;;18.40;60.50;;;;;;4883065;29;20250;-80
2021/09/23 03:42:40;;;;;;;3.58;2.85;;;18.40;60.50;;;;;;4883289;29;20196;-79
2021/09/23 03:45:07;;;;;;;3.85;2.72;;;18.40;60.50;;;;;;4900975;29;20215;-79
2021/09/23 03:47:33;;;;;;;3.60;2.60;;;18.40;60.50;;;;;;4868599;29;20175;-79
2021/09/23 03:49:59;;;;;;;5.47;2.90;;;18.40;60.50;;;;;;4899832;29;20155;-80
2021/09/23 03:52:25;;;;;;;4.40;2.88;;;18.40;60.50;;;;;;4901036;29;20235;-79
2021/09/23 03:54:50;;;;;;;5.18;3.03;;;18.40;60.50;;;;;;4900641;29;20605;-79
2021/09/23 03:57:16;;;;;;;4.05;2.97;;;18.40;60.50;;;;;;4900496;29;20639;-79
2021/09/23 03:59:42;;;;;;;4.20;2.58;;;18.40;60.50;;;;;;4900536;29;20155;-79
2021/09/23 04:02:08;;;;;;;4.95;2.83;;;18.40;60.60;;;;;;4900586;29;20642;-79
2021/09/23 04:04:33;;;;;;;3.33;2.83;;;18.40;60.60;;;;;;4901020;29;20519;-79
2021/09/23 04:06:59;;;;;;;4.30;2.97;;;18.40;60.60;;;;;;4900463;29;20275;-79
2021/09/23 04:09:24;;;;;;;3.92;2.65;;;18.30;60.60;;;;;;4900549;29;20623;-79
2021/09/23 04:12:00;;;;;;;3.42;2.60;;;18.40;60.60;;;;;;5072857;28;20539;-81
2021/09/23 04:14:27;;;;;;;4.20;2.78;;;18.40;60.70;;;;;;5072201;28;20171;-78
2021/09/23 04:16:53;;;;;;;3.17;2.75;;;18.40;60.60;;;;;;5072413;28;20158;-78
2021/09/23 04:19:19;;;;;;;6.00;2.90;;;18.40;60.60;;;;;;5071896;28;20701;-80
2021/09/23 04:21:45;;;;;;;3.42;2.70;;;18.40;60.60;;;;;;5071025;28;20534;-78
2021/09/23 04:24:11;;;;;;;3.60;2.75;;;18.40;60.70;;;;;;5071616;28;20161;-80
2021/09/23 04:26:37;;;;;;;4.05;3.05;;;18.40;60.60;;;;;;5070427;28;20168;-81
2021/09/23 04:29:02;;;;;;;3.78;2.90;;;18.40;60.60;;;;;;5070761;28;20154;-81
2021/09/23 04:31:28;;;;;;;4.55;2.85;;;18.30;60.70;;;;;;5070862;28;20185;-78
2021/09/23 04:33:54;;;;;;;4.53;2.65;;;18.40;60.70;;;;;;5070580;28;20188;-79
2021/09/23 04:36:20;;;;;;;4.22;2.88;;;18.40;60.70;;;;;;5071875;28;20522;-78
2021/09/23 04:38:45;;;;;;;4.55;2.88;;;18.40;60.70;;;;;;5071977;28;20517;-78
2021/09/23 04:41:11;;;;;;;3.65;2.92;;;18.40;60.80;;;;;;5071882;28;20219;-80
2021/09/23 04:43:38;;;;;;;4.38;2.78;;;18.40;60.70;;;;;;5071691;28;20165;-79
2021/09/23 04:46:04;;;;;;;4.60;2.85;;;18.40;60.70;;;;;;5072193;28;20157;-80
2021/09/23 04:48:30;;;;;;;2.90;2.60;;;18.40;60.80;;;;;;5070517;28;20153;-80
2021/09/23 04:50:56;;;;;;;4.13;2.63;;;18.40;60.80;;;;;;5071367;28;20188;-80
2021/09/23 04:53:21;;;;;;;3.97;2.88;;;18.40;60.80;;;;;;5070184;28;20165;-80
2021/09/23 04:55:47;;;;;;;3.60;2.70;;;18.40;60.80;;;;;;5071501;28;20142;-80
2021/09/23 04:58:13;;;;;;;3.70;2.95;;;18.40;60.90;;;;;;5071463;28;20232;-80
2021/09/23 05:00:39;;;;;;;3.20;2.72;;;18.40;60.80;;;;;;5069903;28;20181;-80
2021/09/23 05:03:05;;;;;;;3.53;2.60;;;18.40;60.90;;;;;;5053644;28;20209;-81
2021/09/23 05:05:31;;;;;;;3.72;2.80;;;18.40;61.80;;;;;;5069861;28;20154;-80
2021/09/23 05:07:56;;;;;;;3.90;2.88;;;18.50;61.00;;;;;;5071697;28;20241;-80
2021/09/23 05:10:22;;;;;;;4.22;2.90;;;18.40;60.90;;;;;;5069467;28;20282;-80
2021/09/23 05:12:48;;;;;;;4.55;2.80;;;18.40;60.90;;;;;;5070965;28;20632;-80
2021/09/23 05:15:13;;;;;;;4.25;3.10;;;18.40;60.90;;;;;;5070877;28;20154;-80
2021/09/23 05:17:39;;;;;;;4.30;2.70;;;18.40;60.90;;;;;;5069784;28;20569;-80
2021/09/23 05:20:08;;;;;;;3.28;2.58;;;18.40;61.00;;;;;;5069289;28;20179;-80
2021/09/23 05:22:35;;;;;;;3.90;2.80;;;18.40;60.90;;;;;;5060808;28;20162;-80
2021/09/23 05:25:00;;;;;;;3.58;2.95;;;18.40;60.90;;;;;;5057922;28;20198;-80
2021/09/23 05:27:26;;;;;;;3.90;2.83;;;18.40;60.90;;;;;;5056140;28;20181;-80
2021/09/23 05:29:52;;;;;;;5.15;2.90;;;18.40;60.80;;;;;;5056561;28;20202;-80
2021/09/23 05:32:17;;;;;;;3.83;2.80;;;18.40;60.90;;;;;;5057434;28;20154;-80
2021/09/23 05:34:43;;;;;;;3.70;2.80;;;18.40;61.80;;;;;;5056730;28;20578;-80
2021/09/23 05:37:09;;;;;;;3.10;2.70;;;18.40;60.90;;;;;;5057426;28;20612;-80
2021/09/23 05:39:35;;;;;;;3.88;2.90;;;18.40;61.00;;;;;;5057297;28;20155;-80
2021/09/23 05:42:02;;;;;;;3.25;2.63;;;18.40;60.80;;;;;;5057549;28;20170;-80
2021/09/23 05:44:28;;;;;;;3.70;2.60;;;18.40;60.90;;;;;;5055940;28;20181;-80
2021/09/23 05:46:55;;;;;;;3.53;2.78;;;18.40;60.90;;;;;;5057835;28;20173;-80
2021/09/23 05:49:20;;;;;;;2.80;2.42;;;18.40;60.90;;;;;;5040317;28;20552;-80
2021/09/23 05:51:47;;;;;;;3.55;2.80;;;18.40;60.90;;;;;;5057527;28;20189;-80
2021/09/23 05:54:12;;;;;;;3.78;2.80;;;18.30;60.90;;;;;;5055158;28;20150;-79
2021/09/23 05:56:39;;;;;;;3.75;2.80;;;18.40;61.10;;;;;;5054360;28;20223;-80
2021/09/23 05:59:04;;;;;;;4.03;2.70;;;18.40;60.90;;;;;;5054552;28;20245;-79
2021/09/23 06:01:30;;;;;;;4.72;2.63;;;18.40;60.80;;;;;;5055486;28;20193;-80
2021/09/23 06:03:56;;;;;;;3.80;2.80;;;18.40;60.80;;;;;;5055428;28;20157;-79
2021/09/23 06:06:21;;;;;;;3.70;2.67;;;18.40;60.90;;;;;;5055352;28;20154;-80
2021/09/23 06:08:47;;;;;;;4.40;2.92;;;18.40;60.70;;;;;;5055593;28;20181;-79
2021/09/23 06:11:13;;;;;;;3.40;2.60;;;18.40;60.90;;;;;;5055003;28;20594;-79
2021/09/23 06:13:38;;;;;;;3.60;2.85;;;18.40;60.90;;;;;;5055194;28;20632;-79
2021/09/23 06:16:05;;;;;;;4.05;2.97;;;18.40;60.90;;;;;;5056672;28;20166;-79
2021/09/23 06:18:30;;;;;;;3.40;2.67;;;18.40;60.90;;;;;;5053879;28;20154;-81
2021/09/23 06:20:56;;;;;;;4.10;2.90;;;18.40;61.10;;;;;;5054101;28;20169;-80
2021/09/23 06:23:21;;;;;;;2.78;2.53;;;18.40;61.00;;;;;;5055314;28;20166;-80
2021/09/23 06:25:47;;;;;;;4.13;2.90;;;18.50;61.90;;;;;;5054033;28;20608;-80
2021/09/23 06:28:13;;;;;;;3.88;2.92;;;18.40;60.90;;;;;;5053810;28;20276;-80
2021/09/23 06:30:38;;;;;;;3.38;2.80;;;18.40;60.90;;;;;;5055124;28;20554;-80
2021/09/23 06:33:04;;;;;;;4.85;2.80;;;18.40;61.70;;;;;;5054831;28;20167;-81
2021/09/23 06:35:30;;;;;;;4.93;2.70;;;18.50;61.80;;;;;;5053615;28;20216;-80
2021/09/23 06:37:56;;;;;;;4.03;2.90;;;18.50;61.80;;;;;;5053980;28;20165;-80
2021/09/23 06:40:22;;;;;;;3.45;2.58;;;18.50;61.30;;;;;;5053732;28;20158;-80
2021/09/23 06:42:48;;;;;;;4.03;2.50;;;18.50;60.90;;;;;;5053617;28;20605;-80
2021/09/23 06:45:13;;;;;;;4.20;2.85;;;18.50;60.90;;;;;;5054297;28;20155;-80
2021/09/23 06:47:39;;;;;;;4.15;3.13;;;18.50;61.40;;;;;;5053730;28;20146;-80
2021/09/23 06:50:05;;;;;;;4.13;2.92;;;18.50;61.80;;;;;;5055000;28;20189;-80
2021/09/23 06:52:31;;;;;;;3.00;2.60;;;18.50;61.20;;;;;;5055180;28;20242;-79
2021/09/23 06:54:57;;;;;;;3.50;2.67;;;18.50;61.10;;;;;;5055012;28;20597;-79
2021/09/23 06:57:23;;;;;;;3.15;2.60;;;18.50;61.40;;;;;;5055025;28;20158;-79
2021/09/23 06:59:48;;;;;;;3.50;2.60;;;18.40;60.90;;;;;;5054871;28;20609;-78
2021/09/23 07:02:14;;;;;;;3.15;2.60;;;18.40;61.00;;;;;;5054719;28;20496;-80
2021/09/23 07:04:39;;;;;;;6.65;2.80;;;18.50;61.20;;;;;;5054319;28;20525;-79
2021/09/23 07:07:05;;;;;;;3.50;2.58;;;18.50;61.60;;;;;;5054545;28;20150;-79
2021/09/23 07:09:31;;;;;;;3.15;2.67;;;18.40;62.00;;;;;;5054729;28;20616;-80
2021/09/23 07:11:58;;;;;;;3.55;2.63;;;18.40;61.40;;;;;;5054182;28;20229;-79
2021/09/23 07:14:24;;;;;;;3.28;2.72;;;18.50;61.40;;;;;;5052834;28;20604;-78
2021/09/23 07:16:50;;;;;;;3.40;2.63;;;18.40;61.40;;;;;;5054288;28;20226;-80
2021/09/23 07:19:15;;;;;;;3.33;2.50;;;18.50;61.00;;;;;;5054017;28;20161;-80
2021/09/23 07:21:41;;;;;;;3.58;2.85;;;18.50;61.70;;;;;;5053783;28;20670;-78
2021/09/23 07:24:07;;;;;;;4.18;2.70;;;18.50;62.10;;;;;;5053923;28;20161;-79
2021/09/23 07:26:33;;;;;;;5.35;2.58;;;18.50;61.50;;;;;;5054024;28;20158;-79
2021/09/23 07:28:59;;;;;;;4.10;3.00;;;18.50;61.70;;;;;;5054058;28;20158;-79
2021/09/23 07:31:25;;;;;;;4.22;2.90;;;18.40;61.20;;;;;;5036209;28;20202;-79
2021/09/23 07:33:51;;;;;;;4.28;2.70;;;18.40;61.60;;;;;;5036520;28;20158;-79
2021/09/23 07:36:17;;;;;;;3.10;2.50;;;18.50;61.70;;;;;;5054463;28;20169;-79
2021/09/23 07:38:43;;;;;;;3.75;2.95;;;18.50;61.70;;;;;;5054207;28;20241;-78
2021/09/23 07:41:09;;;;;;;3.35;2.47;;;18.50;61.40;;;;;;5055154;28;20189;-80
2021/09/23 07:43:34;;;;;;;3.58;2.83;;;18.50;61.40;;;;;;5054342;28;20158;-80
2021/09/23 07:46:00;;;;;;;4.07;2.65;;;18.50;62.30;;;;;;5052672;28;20150;-79
2021/09/23 07:48:26;;;;;;;3.58;2.60;;;18.50;62.20;;;;;;5053521;28;20154;-79
2021/09/23 07:50:52;;;;;;;3.38;2.72;;;18.50;62.00;;;;;;5054376;28;20281;-79
2021/09/23 07:53:17;;;;;;;5.63;2.60;;;18.50;61.40;;;;;;5053994;28;20484;-79
2021/09/23 07:55:43;;;;;;;3.45;2.40;;;18.50;61.70;;;;;;5054139;28;20158;-79
2021/09/23 07:58:08;;;;;;;2.92;2.60;;;18.50;61.60;;;;;;5053483;28;20153;-79
2021/09/23 08:00:34;;;;;;;3.28;2.42;;;18.50;61.80;;;;;;5036181;28;20181;-78
2021/09/23 08:03:00;;;;;;;3.05;2.53;;;18.50;62.10;;;;;;5053934;28;20154;-79
2021/09/23 08:05:29;;;;;;;4.25;2.53;;;18.50;63.20;;;;;;5054531;28;20533;-80
2021/09/23 08:07:56;;;;;;;3.67;2.88;;;18.50;62.60;;;;;;5053808;28;20192;-80
2021/09/23 08:10:22;;;;;;;3.15;2.65;;;18.60;62.10;;;;;;5053313;28;20316;-80
2021/09/23 08:12:47;;;;;;;3.63;2.65;;;18.50;61.60;;;;;;5054633;28;20621;-80
2021/09/23 08:15:13;;;;;;;4.53;2.58;;;18.50;61.60;;;;;;5053492;28;20212;-79
2021/09/23 08:17:39;;;;;;;2.70;2.25;;;18.50;61.40;;;;;;5054939;28;20618;-79
2021/09/23 08:20:06;;;;;;;3.03;2.60;;;18.50;61.70;;;;;;5062481;28;20158;-79
2021/09/23 08:22:32;;;;;;;2.95;2.58;;;18.50;61.20;;;;;;5060793;28;20249;-79
2021/09/23 08:24:58;;;;;;;2.92;2.40;;;18.50;61.30;;;;;;5061189;28;20674;-79
2021/09/23 08:27:24;;;;;;;2.85;2.50;;;18.50;61.70;;;;;;5062320;28;20177;-80
2021/09/23 08:29:50;;;;;;;3.25;2.45;;;18.50;61.60;;;;;;5044212;28;20195;-79
2021/09/23 08:32:19;;;;;;;3.00;2.50;;;18.50;61.40;;;;;;5061684;28;20162;-79
2021/09/23 08:34:47;;;;;;;4.05;2.60;;;18.50;61.60;;;;;;5065129;28;20519;-79
2021/09/23 08:37:14;;;;;;;3.72;2.50;;;18.50;61.60;;;;;;5065262;28;20157;-79
2021/09/23 08:39:41;;;;;;;3.30;3.00;;;18.50;61.20;;;;;;5046049;28;20269;-79
2021/09/23 08:42:08;;;;;;;3.97;2.70;;;18.50;61.80;;;;;;5046387;28;20166;-79
2021/09/23 08:44:36;;;;;;;3.17;2.42;;;18.50;61.80;;;;;;5061229;28;20631;-79
2021/09/23 08:47:02;;;;;;;2.80;2.47;;;18.50;61.70;;;;;;5057666;28;20560;-79
2021/09/23 08:49:28;;;;;;;3.08;2.33;;;18.50;61.70;;;;;;5055568;28;20184;-79
2021/09/23 08:51:53;;;;;;;3.88;2.30;;;18.50;62.00;;;;;;5058890;28;20185;-78
2021/09/23 08:54:19;;;;;;;3.00;2.53;;;18.50;61.90;;;;;;5059517;28;20190;-79
2021/09/23 08:56:46;;;;;;;3.78;2.67;;;18.50;61.70;;;;;;5044061;28;20174;-79
2021/09/23 08:59:12;;;;;;;3.30;2.42;;;18.60;61.40;;;;;;5063547;28;20150;-79
2021/09/23 09:01:48;;;;;;;2.80;2.20;;;18.50;61.30;;;;;;5064607;28;20177;-79
2021/09/23 09:04:13;;;;;;;2.78;2.28;;;18.50;61.30;;;;;;5065873;28;20162;-79
2021/09/23 09:06:55;;;;;;;4.30;2.65;;;18.60;61.70;;;;;;5063604;28;20158;-79
2021/09/23 09:09:22;;;;;;;3.30;2.67;;;18.50;61.40;;;;;;5063102;28;20222;-79
2021/09/23 09:11:52;;;;;;;3.00;2.58;;;18.50;61.30;;;;;;5061072;28;20213;-79
2021/09/23 09:14:27;;;;;;;3.63;2.53;;;18.50;61.50;;;;;;5064862;28;20228;-79
2021/09/23 09:17:07;;;;;;;3.42;2.40;;;18.50;61.60;;;;;;5067038;28;20157;-79
2021/09/23 09:19:48;;;;;;;3.95;2.60;;;18.60;62.10;;;;;;5065800;28;20241;-79
2021/09/23 09:22:17;;;;;;;3.10;2.45;;;18.50;62.50;;;;;;5067476;28;20158;-79
2021/09/23 09:24:52;;;;;;;3.65;2.65;;;18.60;61.60;;;;;;5049853;28;20505;-79
2021/09/23 09:27:38;;;;;;;4.22;2.58;;;18.60;61.60;;;;;;5047869;28;20170;-79
2021/09/23 09:30:11;;;;;;;2.90;2.40;;;18.60;61.80;;;;;;5066898;28;20198;-79
2021/09/23 09:32:44;;;;;;;4.18;2.65;;;18.60;62.00;;;;;;5050348;28;20174;-79
2021/09/23 09:35:13;;;;;;;4.30;2.90;;;18.60;61.60;;;;;;5049680;28;20169;-79
2021/09/23 09:37:41;;;;;;;5.35;2.63;;;18.60;62.10;;;;;;5049240;28;20196;-80
2021/09/23 09:40:12;;;;;;;4.07;2.75;;;18.50;61.60;;;;;;5067079;28;20161;-79
2021/09/23 09:42:43;;;;;;;4.38;2.60;;;18.60;62.00;;;;;;5067118;28;20154;-79
2021/09/23 09:45:17;;;;;;;6.80;2.60;;;18.60;61.70;;;;;;5067867;28;20680;-79
2021/09/23 09:47:43;;;;;;;9.20;2.95;;;18.60;61.90;;;;;;5051296;28;20168;-79
2021/09/23 09:50:13;;;;;;;5.80;2.67;;;18.60;62.20;;;;;;5050858;28;20194;-79
2021/09/23 09:52:45;;;;;;;6.80;2.63;;;18.60;62.10;;;;;;5050323;28;20177;-79
2021/09/23 09:55:12;;;;;;;5.72;2.75;;;18.60;62.00;;;;;;5049535;28;20176;-79
2021/09/23 09:57:47;;;;;;;5.28;2.70;;;18.60;62.10;;;;;;5049409;28;20178;-79
2021/09/23 10:00:15;;;;;;;9.50;2.75;;;18.60;61.70;;;;;;5066585;28;20193;-79
2021/09/23 10:02:43;;;;;;;6.13;2.53;;;18.60;61.80;;;;;;5067244;28;20193;-79
2021/09/23 10:05:11;;;;;;;6.97;2.70;;;18.60;61.70;;;;;;5065979;28;20178;-79
2021/09/23 10:07:40;;;;;;;8.82;2.60;;;18.70;61.90;;;;;;5033844;28;20184;-79
2021/09/23 10:10:08;;;;;;;3.88;2.80;;;18.70;61.80;;;;;;5049025;28;20221;-79
2021/09/23 10:12:33;;;;;;;8.55;2.78;;;18.60;61.90;;;;;;5032311;28;20166;-79
2021/09/23 10:15:00;;;;;;;6.65;2.97;;;18.60;61.80;;;;;;5015586;28;20266;-79
2021/09/23 10:17:30;;;;;;;7.43;2.70;;;18.50;61.70;;;;;;5032448;28;20190;-80
2021/09/23 10:19:59;;;;;;;5.28;2.40;;;18.60;61.70;;;;;;5016152;28;20208;-79
2021/09/23 10:22:27;;;;;;;6.05;2.58;;;18.70;61.80;;;;;;5028110;28;20523;-80
2021/09/23 10:24:54;;;;;;;7.30;2.78;;;18.60;62.50;;;;;;5008871;28;20182;-79
2021/09/23 10:30:03;;;;;;;6.60;2.60;;;18.60;61.80;;;;;;5064449;28;20281;-78
2021/09/23 10:32:29;;;;;;;5.35;2.58;;;18.60;61.80;;;;;;5029884;28;20155;-79
2021/09/23 10:34:55;;;;;;;5.93;2.80;;;18.70;62.30;;;;;;5045730;28;20188;-80
2021/09/23 10:37:21;;;;;;;3.70;2.35;;;18.60;62.00;;;;;;5063816;28;20601;-79
2021/09/23 10:39:48;;;;;;;5.38;2.20;;;18.60;62.10;;;;;;5046443;28;20169;-79
2021/09/23 10:42:20;;;;;;;7.03;2.50;;;18.70;62.60;;;;;;5061156;28;20177;-79
2021/09/23 10:44:51;;;;;;;4.10;2.78;;;18.60;62.00;;;;;;5042418;28;20176;-79
2021/09/23 10:47:28;;;;;;;5.38;2.60;;;18.70;62.20;;;;;;5055410;28;20190;-79
2021/09/23 10:49:54;;;;;;;6.05;2.70;;;18.60;62.10;;;;;;5055826;28;20590;-80
2021/09/23 10:52:22;;;;;;;6.88;2.70;;;18.70;62.60;;;;;;5056372;28;20200;-80
2021/09/23 10:54:49;;;;;;;7.15;2.72;;;18.60;62.40;;;;;;5055915;28;20610;-79
2021/09/23 10:57:15;;;;;;;5.85;2.67;;;18.60;62.30;;;;;;5058119;28;20188;-79
2021/09/23 10:59:40;;;;;;;6.55;2.65;;;18.70;62.20;;;;;;5055456;28;20169;-79
2021/09/23 11:02:19;;;;;;;3.10;2.50;;;18.70;62.20;;;;;;5057288;28;20157;-79
2021/09/23 11:04:45;;;;;;;5.57;2.65;;;18.70;62.30;;;;;;5056037;28;20155;-79
2021/09/23 11:07:11;;;;;;;7.57;2.60;;;18.70;62.60;;;;;;5057272;28;20162;-79
2021/09/23 11:09:38;;;;;;;5.20;2.95;;;18.70;62.40;;;;;;5055920;28;20238;-79
2021/09/23 11:12:06;;;;;;;5.07;3.05;;;18.70;62.30;;;;;;5055387;28;20217;-79
2021/09/23 11:14:36;;;;;;;7.28;2.90;;;18.70;62.20;;;;;;5054340;28;20530;-80
2021/09/23 11:17:02;;;;;;;6.15;2.70;;;18.70;62.30;;;;;;5055135;28;20165;-80
2021/09/23 11:19:28;;;;;;;7.85;2.50;;;18.70;62.60;;;;;;5054866;28;20161;-79
2021/09/23 11:21:57;;;;;;;6.32;2.90;;;18.70;63.10;;;;;;5054013;28;20170;-80
2021/09/23 11:24:23;;;;;;;10.70;3.15;;;18.70;62.30;;;;;;5055614;28;20162;-80
2021/09/23 11:26:49;;;;;;;11.60;3.10;;;18.70;62.30;;;;;;5055895;28;20150;-79
2021/09/23 11:29:14;;;;;;;11.32;3.33;;;18.70;62.20;;;;;;5056909;28;20296;-79
2021/09/23 11:31:56;;;;;;;11.43;3.10;;;18.70;63.50;;;;;;5056138;28;20221;-80
2021/09/23 11:34:32;;;;;;;12.57;3.22;;;18.70;62.20;;;;;;5055927;28;20154;-79
2021/09/23 11:36:58;;;;;;;9.70;3.10;;;18.80;62.30;;;;;;5055191;28;20161;-79
2021/09/23 11:39:24;;;;;;;9.23;3.25;;;18.70;62.20;;;;;;5054201;28;20162;-80
2021/09/23 11:42:09;;;;;;;8.93;2.90;;;18.80;62.00;;;;;;5053298;28;20158;-79
2021/09/23 11:44:35;;;;;;;9.40;3.40;;;18.80;62.20;;;;;;5057259;28;20151;-80
2021/09/23 11:47:01;;;;;;;8.40;3.17;;;18.70;62.20;;;;;;5054244;28;20165;-80
2021/09/23 11:49:35;;;;;;;8.68;2.92;;;18.70;62.60;;;;;;5037591;28;20227;-80
2021/09/23 11:52:00;;;;;;;9.30;3.08;;;18.70;62.80;;;;;;5056607;28;20664;-80
2021/09/23 11:54:26;;;;;;;10.00;2.90;;;18.80;62.40;;;;;;5058035;28;20162;-80
2021/09/23 11:56:52;;;;;;;9.15;2.75;;;18.80;62.90;;;;;;5058128;28;20612;-80
2021/09/23 11:59:24;;;;;;;6.35;2.60;;;18.80;62.30;;;;;;5041649;28;20177;-80
2021/09/23 12:02:06;;;;;;;4.13;2.50;;;18.90;62.70;;;;;;5059657;28;20161;-81
2021/09/23 12:04:33;;;;;;;8.57;2.58;;;18.90;62.10;;;;;;5057649;28;20162;-80
2021/09/23 12:07:00;;;;;;;6.65;2.80;;;18.80;62.30;;;;;;5060248;28;20162;-79
2021/09/23 12:09:26;;;;;;;8.07;2.83;;;18.90;62.10;;;;;;5057552;28;20150;-79
2021/09/23 12:11:52;;;;;;;8.48;2.63;;;18.90;61.90;;;;;;5039941;28;20260;-79
2021/09/23 12:14:18;;;;;;;11.80;2.50;;;18.90;62.00;;;;;;5060939;28;20158;-79
2021/09/23 12:16:44;;;;;;;6.07;3.15;;;18.90;62.00;;;;;;5061745;28;20158;-80
2021/09/23 12:19:18;;;;;;;5.55;2.80;;;18.90;62.10;;;;;;5058368;28;20158;-80
2021/09/23 12:21:53;;;;;;;7.18;2.67;;;18.80;62.00;;;;;;5060551;28;20233;-80
2021/09/23 12:24:29;;;;;;;8.05;2.72;;;18.90;62.10;;;;;;5060837;28;20645;-79
2021/09/23 12:26:55;;;;;;;7.30;2.40;;;18.80;62.60;;;;;;5045862;28;20165;-81
2021/09/23 12:29:24;;;;;;;7.35;2.75;;;19.00;62.50;;;;;;5060409;28;20154;-80
2021/09/23 12:32:07;;;;;;;4.20;2.67;;;19.00;62.40;;;;;;5060437;28;20795;-80
2021/09/23 12:34:44;;;;;;;4.93;2.60;;;19.00;62.00;;;;;;5045825;28;20261;-80
2021/09/23 12:37:10;;;;;;;4.85;2.58;;;19.00;62.30;;;;;;5063073;28;20164;-79
2021/09/23 12:39:42;;;;;;;5.85;2.47;;;19.00;62.10;;;;;;5063768;28;20170;-80
2021/09/23 12:42:12;;;;;;;5.25;2.45;;;19.00;62.10;;;;;;5032844;28;20268;-81
2021/09/23 12:44:41;;;;;;;8.10;2.70;;;19.00;62.00;;;;;;5046443;28;20161;-80
2021/09/23 12:47:16;;;;;;;6.13;2.80;;;19.00;62.00;;;;;;5031364;28;20468;-80